sensor_id;sensor_type;location;lat;lon;timestamp;P1;durP1;ratioP1;P2;durP2;ratioP2
76818;SDS011;65772;51.096;17.006;2022-12-20T00:02:20;18.90;;;9.00;;
76818;SDS011;65772;51.096;17.006;2022-12-20T00:04:51;21.50;;;10.10;;
76818;SDS011;65772;51.096;17.006;2022-12-20T00:07:21;25.10;;;10.40;;
76818;SDS011;65772;51.096;17.006;2022-12-20T00:09:52;25.00;;;10.60;;
76818;SDS011;65772;51.096;17.006;2022-12-20T00:12:22;24.60;;;11.20;;
76818;SDS011;65772;51.096;17.006;2022-12-20T00:14:53;23.30;;;10.70;;
76818;SDS011;65772;51.096;17.006;2022-12-20T00:17:23;23.30;;;10.30;;
76818;SDS011;65772;51.096;17.006;2022-12-20T00:19:54;21.50;;;10.00;;
76818;SDS011;65772;51.096;17.006;2022-12-20T00:22:24;22.70;;;10.90;;
76818;SDS011;65772;51.096;17.006;2022-12-20T00:24:55;19.00;;;9.00;;
76818;SDS011;65772;51.096;17.006;2022-12-20T00:27:25;24.00;;;9.60;;
76818;SDS011;65772;51.096;17.006;2022-12-20T00:29:56;17.40;;;8.50;;
76818;SDS011;65772;51.096;17.006;2022-12-20T00:32:27;18.50;;;8.50;;
76818;SDS011;65772;51.096;17.006;2022-12-20T00:34:58;19.80;;;9.50;;
76818;SDS011;65772;51.096;17.006;2022-12-20T00:37:28;21.60;;;10.00;;
76818;SDS011;65772;51.096;17.006;2022-12-20T00:39:59;25.40;;;11.00;;
76818;SDS011;65772;51.096;17.006;2022-12-20T00:42:31;19.60;;;9.10;;
76818;SDS011;65772;51.096;17.006;2022-12-20T00:45:01;23.80;;;9.30;;
76818;SDS011;65772;51.096;17.006;2022-12-20T00:47:32;22.50;;;9.70;;
76818;SDS011;65772;51.096;17.006;2022-12-20T00:50:03;24.80;;;9.20;;
76818;SDS011;65772;51.096;17.006;2022-12-20T00:52:35;20.50;;;9.50;;
76818;SDS011;65772;51.096;17.006;2022-12-20T00:55:06;20.00;;;9.00;;
76818;SDS011;65772;51.096;17.006;2022-12-20T00:57:37;20.50;;;9.30;;
76818;SDS011;65772;51.096;17.006;2022-12-20T01:00:09;21.00;;;9.60;;
76818;SDS011;65772;51.096;17.006;2022-12-20T01:02:40;26.50;;;10.90;;
76818;SDS011;65772;51.096;17.006;2022-12-20T01:05:11;22.00;;;9.00;;
76818;SDS011;65772;51.096;17.006;2022-12-20T01:07:42;19.80;;;9.80;;
76818;SDS011;65772;51.096;17.006;2022-12-20T01:10:12;23.00;;;10.00;;
76818;SDS011;65772;51.096;17.006;2022-12-20T01:12:43;25.20;;;10.80;;
76818;SDS011;65772;51.096;17.006;2022-12-20T01:15:13;27.80;;;11.40;;
76818;SDS011;65772;51.096;17.006;2022-12-20T01:17:44;21.40;;;10.50;;
76818;SDS011;65772;51.096;17.006;2022-12-20T01:20:15;21.60;;;10.80;;
76818;SDS011;65772;51.096;17.006;2022-12-20T01:22:46;19.40;;;10.10;;
76818;SDS011;65772;51.096;17.006;2022-12-20T01:25:16;21.70;;;9.90;;
76818;SDS011;65772;51.096;17.006;2022-12-20T01:27:47;21.30;;;9.30;;
76818;SDS011;65772;51.096;17.006;2022-12-20T01:30:17;18.90;;;9.00;;
76818;SDS011;65772;51.096;17.006;2022-12-20T01:32:48;21.50;;;9.70;;
76818;SDS011;65772;51.096;17.006;2022-12-20T01:35:18;22.30;;;9.70;;
76818;SDS011;65772;51.096;17.006;2022-12-20T01:37:49;20.70;;;9.90;;
76818;SDS011;65772;51.096;17.006;2022-12-20T01:40:19;19.20;;;9.30;;
76818;SDS011;65772;51.096;17.006;2022-12-20T01:42:50;20.20;;;9.10;;
76818;SDS011;65772;51.096;17.006;2022-12-20T01:45:22;25.10;;;11.00;;
76818;SDS011;65772;51.096;17.006;2022-12-20T01:47:56;20.00;;;10.00;;
76818;SDS011;65772;51.096;17.006;2022-12-20T01:50:29;19.50;;;9.50;;
76818;SDS011;65772;51.096;17.006;2022-12-20T01:53:00;18.70;;;8.80;;
76818;SDS011;65772;51.096;17.006;2022-12-20T01:55:32;21.90;;;9.60;;
76818;SDS011;65772;51.096;17.006;2022-12-20T01:58:06;20.00;;;9.30;;
76818;SDS011;65772;51.096;17.006;2022-12-20T02:00:39;23.10;;;9.30;;
76818;SDS011;65772;51.096;17.006;2022-12-20T02:03:11;19.20;;;9.20;;
76818;SDS011;65772;51.096;17.006;2022-12-20T02:05:43;20.50;;;8.90;;
76818;SDS011;65772;51.096;17.006;2022-12-20T02:08:15;17.50;;;8.10;;
76818;SDS011;65772;51.096;17.006;2022-12-20T02:13:36;19.40;;;8.10;;
76818;SDS011;65772;51.096;17.006;2022-12-20T02:16:17;17.90;;;8.30;;
76818;SDS011;65772;51.096;17.006;2022-12-20T02:18:55;19.70;;;8.60;;
76818;SDS011;65772;51.096;17.006;2022-12-20T02:21:33;21.30;;;9.80;;
76818;SDS011;65772;51.096;17.006;2022-12-20T02:27:24;20.40;;;9.50;;
76818;SDS011;65772;51.096;17.006;2022-12-20T02:30:22;20.20;;;9.60;;
76818;SDS011;65772;51.096;17.006;2022-12-20T02:32:58;21.90;;;9.70;;
76818;SDS011;65772;51.096;17.006;2022-12-20T02:35:32;21.40;;;9.70;;
76818;SDS011;65772;51.096;17.006;2022-12-20T02:38:22;20.60;;;8.80;;
76818;SDS011;65772;51.096;17.006;2022-12-20T02:40:57;23.00;;;9.70;;
76818;SDS011;65772;51.096;17.006;2022-12-20T02:43:31;18.30;;;8.70;;
76818;SDS011;65772;51.096;17.006;2022-12-20T02:46:24;30.00;;;12.10;;
76818;SDS011;65772;51.096;17.006;2022-12-20T02:48:57;27.30;;;11.90;;
76818;SDS011;65772;51.096;17.006;2022-12-20T02:51:31;24.00;;;11.30;;
76818;SDS011;65772;51.096;17.006;2022-12-20T02:54:02;23.90;;;10.80;;
76818;SDS011;65772;51.096;17.006;2022-12-20T02:56:34;22.00;;;9.80;;
76818;SDS011;65772;51.096;17.006;2022-12-20T02:59:10;21.10;;;10.00;;
76818;SDS011;65772;51.096;17.006;2022-12-20T03:01:46;23.10;;;10.80;;
76818;SDS011;65772;51.096;17.006;2022-12-20T03:04:20;21.70;;;10.20;;
76818;SDS011;65772;51.096;17.006;2022-12-20T03:06:57;19.50;;;9.10;;
76818;SDS011;65772;51.096;17.006;2022-12-20T03:09:30;17.10;;;8.00;;
76818;SDS011;65772;51.096;17.006;2022-12-20T03:12:03;22.50;;;9.70;;
76818;SDS011;65772;51.096;17.006;2022-12-20T03:14:36;18.50;;;8.70;;
76818;SDS011;65772;51.096;17.006;2022-12-20T03:17:07;22.40;;;9.80;;
76818;SDS011;65772;51.096;17.006;2022-12-20T03:19:39;21.60;;;9.40;;
76818;SDS011;65772;51.096;17.006;2022-12-20T03:22:09;20.00;;;9.20;;
76818;SDS011;65772;51.096;17.006;2022-12-20T03:24:40;19.90;;;9.60;;
76818;SDS011;65772;51.096;17.006;2022-12-20T03:27:11;22.40;;;9.20;;
76818;SDS011;65772;51.096;17.006;2022-12-20T03:29:42;20.50;;;9.50;;
76818;SDS011;65772;51.096;17.006;2022-12-20T03:32:13;19.10;;;8.60;;
76818;SDS011;65772;51.096;17.006;2022-12-20T03:34:44;20.40;;;8.90;;
76818;SDS011;65772;51.096;17.006;2022-12-20T03:37:16;22.50;;;9.60;;
76818;SDS011;65772;51.096;17.006;2022-12-20T03:39:47;18.90;;;8.20;;
76818;SDS011;65772;51.096;17.006;2022-12-20T03:42:18;19.60;;;9.10;;
76818;SDS011;65772;51.096;17.006;2022-12-20T03:44:48;21.20;;;9.20;;
76818;SDS011;65772;51.096;17.006;2022-12-20T03:47:19;19.60;;;9.80;;
76818;SDS011;65772;51.096;17.006;2022-12-20T03:49:50;19.20;;;8.40;;
76818;SDS011;65772;51.096;17.006;2022-12-20T03:52:21;23.00;;;9.60;;
76818;SDS011;65772;51.096;17.006;2022-12-20T03:54:51;19.90;;;8.40;;
76818;SDS011;65772;51.096;17.006;2022-12-20T03:57:29;17.00;;;8.10;;
76818;SDS011;65772;51.096;17.006;2022-12-20T04:00:00;24.00;;;10.00;;
76818;SDS011;65772;51.096;17.006;2022-12-20T04:02:41;21.30;;;9.00;;
76818;SDS011;65772;51.096;17.006;2022-12-20T04:05:12;25.10;;;9.50;;
76818;SDS011;65772;51.096;17.006;2022-12-20T04:07:43;23.00;;;9.50;;
76818;SDS011;65772;51.096;17.006;2022-12-20T04:10:14;22.00;;;9.60;;
76818;SDS011;65772;51.096;17.006;2022-12-20T04:12:45;19.20;;;8.70;;
76818;SDS011;65772;51.096;17.006;2022-12-20T04:15:16;18.00;;;9.10;;
76818;SDS011;65772;51.096;17.006;2022-12-20T04:17:47;22.10;;;8.90;;
76818;SDS011;65772;51.096;17.006;2022-12-20T04:20:18;21.80;;;9.70;;
76818;SDS011;65772;51.096;17.006;2022-12-20T04:22:55;22.20;;;9.30;;
76818;SDS011;65772;51.096;17.006;2022-12-20T04:25:26;21.20;;;9.60;;
76818;SDS011;65772;51.096;17.006;2022-12-20T04:27:57;24.20;;;9.60;;
76818;SDS011;65772;51.096;17.006;2022-12-20T04:30:27;22.50;;;9.90;;
76818;SDS011;65772;51.096;17.006;2022-12-20T04:32:58;19.80;;;8.90;;
76818;SDS011;65772;51.096;17.006;2022-12-20T04:38:00;20.50;;;9.20;;
76818;SDS011;65772;51.096;17.006;2022-12-20T04:40:31;18.80;;;8.70;;
76818;SDS011;65772;51.096;17.006;2022-12-20T04:43:04;19.70;;;9.20;;
76818;SDS011;65772;51.096;17.006;2022-12-20T04:45:35;21.60;;;9.60;;
76818;SDS011;65772;51.096;17.006;2022-12-20T04:48:06;22.70;;;9.60;;
76818;SDS011;65772;51.096;17.006;2022-12-20T04:50:56;23.40;;;10.80;;
76818;SDS011;65772;51.096;17.006;2022-12-20T04:53:27;26.90;;;11.70;;
76818;SDS011;65772;51.096;17.006;2022-12-20T04:56:45;23.40;;;10.10;;
76818;SDS011;65772;51.096;17.006;2022-12-20T04:59:19;27.20;;;11.50;;
76818;SDS011;65772;51.096;17.006;2022-12-20T05:01:52;25.30;;;11.20;;
76818;SDS011;65772;51.096;17.006;2022-12-20T05:04:38;24.00;;;10.90;;
76818;SDS011;65772;51.096;17.006;2022-12-20T05:07:09;25.90;;;10.60;;
76818;SDS011;65772;51.096;17.006;2022-12-20T05:09:41;24.70;;;11.00;;
76818;SDS011;65772;51.096;17.006;2022-12-20T05:12:11;30.50;;;10.80;;
76818;SDS011;65772;51.096;17.006;2022-12-20T05:14:42;31.90;;;11.80;;
76818;SDS011;65772;51.096;17.006;2022-12-20T05:17:14;35.70;;;13.90;;
76818;SDS011;65772;51.096;17.006;2022-12-20T05:21:40;27.90;;;12.30;;
76818;SDS011;65772;51.096;17.006;2022-12-20T05:24:29;28.90;;;12.00;;
76818;SDS011;65772;51.096;17.006;2022-12-20T05:27:32;26.40;;;11.50;;
76818;SDS011;65772;51.096;17.006;2022-12-20T05:30:04;23.00;;;11.20;;
76818;SDS011;65772;51.096;17.006;2022-12-20T05:32:36;20.80;;;10.30;;
76818;SDS011;65772;51.096;17.006;2022-12-20T05:35:08;27.10;;;11.10;;
76818;SDS011;65772;51.096;17.006;2022-12-20T05:37:39;24.90;;;11.60;;
76818;SDS011;65772;51.096;17.006;2022-12-20T05:40:14;24.80;;;11.10;;
76818;SDS011;65772;51.096;17.006;2022-12-20T05:42:45;21.90;;;10.70;;
76818;SDS011;65772;51.096;17.006;2022-12-20T05:45:16;28.40;;;11.10;;
76818;SDS011;65772;51.096;17.006;2022-12-20T05:47:51;25.60;;;11.40;;
76818;SDS011;65772;51.096;17.006;2022-12-20T05:50:22;25.90;;;10.50;;
76818;SDS011;65772;51.096;17.006;2022-12-20T05:53:12;24.30;;;10.90;;
76818;SDS011;65772;51.096;17.006;2022-12-20T05:55:48;27.10;;;11.60;;
76818;SDS011;65772;51.096;17.006;2022-12-20T05:58:22;24.20;;;11.50;;
76818;SDS011;65772;51.096;17.006;2022-12-20T06:00:58;24.00;;;10.20;;
76818;SDS011;65772;51.096;17.006;2022-12-20T06:03:29;28.90;;;11.40;;
76818;SDS011;65772;51.096;17.006;2022-12-20T06:06:04;29.60;;;13.50;;
76818;SDS011;65772;51.096;17.006;2022-12-20T06:08:42;29.20;;;11.40;;
76818;SDS011;65772;51.096;17.006;2022-12-20T06:11:18;25.30;;;11.20;;
76818;SDS011;65772;51.096;17.006;2022-12-20T06:14:08;28.90;;;12.40;;
76818;SDS011;65772;51.096;17.006;2022-12-20T06:16:43;28.00;;;12.50;;
76818;SDS011;65772;51.096;17.006;2022-12-20T06:19:16;23.30;;;11.60;;
76818;SDS011;65772;51.096;17.006;2022-12-20T06:21:51;23.60;;;10.00;;
76818;SDS011;65772;51.096;17.006;2022-12-20T06:24:30;26.80;;;10.60;;
76818;SDS011;65772;51.096;17.006;2022-12-20T06:27:01;25.00;;;11.40;;
76818;SDS011;65772;51.096;17.006;2022-12-20T06:29:33;26.80;;;11.70;;
76818;SDS011;65772;51.096;17.006;2022-12-20T06:32:09;28.40;;;12.10;;
76818;SDS011;65772;51.096;17.006;2022-12-20T06:34:40;28.50;;;12.20;;
76818;SDS011;65772;51.096;17.006;2022-12-20T06:37:11;25.70;;;11.70;;
76818;SDS011;65772;51.096;17.006;2022-12-20T06:39:42;28.50;;;12.30;;
76818;SDS011;65772;51.096;17.006;2022-12-20T06:42:13;26.30;;;11.00;;
76818;SDS011;65772;51.096;17.006;2022-12-20T06:44:45;27.00;;;11.00;;
76818;SDS011;65772;51.096;17.006;2022-12-20T06:47:16;30.80;;;12.50;;
76818;SDS011;65772;51.096;17.006;2022-12-20T06:49:47;25.80;;;11.80;;
76818;SDS011;65772;51.096;17.006;2022-12-20T06:52:21;31.80;;;13.60;;
76818;SDS011;65772;51.096;17.006;2022-12-20T06:54:54;28.60;;;12.30;;
76818;SDS011;65772;51.096;17.006;2022-12-20T06:57:24;25.50;;;11.50;;
76818;SDS011;65772;51.096;17.006;2022-12-20T06:59:56;27.50;;;12.30;;
76818;SDS011;65772;51.096;17.006;2022-12-20T07:02:26;26.60;;;11.30;;
76818;SDS011;65772;51.096;17.006;2022-12-20T07:04:57;27.10;;;12.40;;
76818;SDS011;65772;51.096;17.006;2022-12-20T07:07:28;27.60;;;11.40;;
76818;SDS011;65772;51.096;17.006;2022-12-20T07:09:58;25.50;;;11.90;;
76818;SDS011;65772;51.096;17.006;2022-12-20T07:12:29;29.20;;;11.80;;
76818;SDS011;65772;51.096;17.006;2022-12-20T07:15:00;34.20;;;12.80;;
76818;SDS011;65772;51.096;17.006;2022-12-20T07:17:30;27.20;;;11.40;;
76818;SDS011;65772;51.096;17.006;2022-12-20T07:20:01;27.70;;;11.10;;
76818;SDS011;65772;51.096;17.006;2022-12-20T07:22:40;27.50;;;11.50;;
76818;SDS011;65772;51.096;17.006;2022-12-20T07:25:11;31.10;;;11.10;;
76818;SDS011;65772;51.096;17.006;2022-12-20T07:27:41;28.20;;;12.30;;
76818;SDS011;65772;51.096;17.006;2022-12-20T07:32:43;26.60;;;10.70;;
76818;SDS011;65772;51.096;17.006;2022-12-20T07:35:14;27.10;;;11.00;;
76818;SDS011;65772;51.096;17.006;2022-12-20T07:37:45;24.10;;;11.50;;
76818;SDS011;65772;51.096;17.006;2022-12-20T07:40:16;29.20;;;12.90;;
76818;SDS011;65772;51.096;17.006;2022-12-20T07:42:47;36.20;;;15.60;;
76818;SDS011;65772;51.096;17.006;2022-12-20T07:45:18;30.80;;;12.30;;
76818;SDS011;65772;51.096;17.006;2022-12-20T07:47:48;29.20;;;12.60;;
76818;SDS011;65772;51.096;17.006;2022-12-20T07:50:19;31.10;;;13.60;;
76818;SDS011;65772;51.096;17.006;2022-12-20T07:52:50;24.70;;;11.60;;
76818;SDS011;65772;51.096;17.006;2022-12-20T07:55:21;31.70;;;13.30;;
76818;SDS011;65772;51.096;17.006;2022-12-20T07:57:52;26.00;;;12.20;;
76818;SDS011;65772;51.096;17.006;2022-12-20T08:00:30;33.70;;;12.50;;
76818;SDS011;65772;51.096;17.006;2022-12-20T08:03:01;28.30;;;12.40;;
76818;SDS011;65772;51.096;17.006;2022-12-20T08:05:36;25.20;;;11.20;;
76818;SDS011;65772;51.096;17.006;2022-12-20T08:10:38;21.50;;;9.50;;
76818;SDS011;65772;51.096;17.006;2022-12-20T08:13:09;24.70;;;10.50;;
76818;SDS011;65772;51.096;17.006;2022-12-20T08:15:40;28.30;;;12.00;;
76818;SDS011;65772;51.096;17.006;2022-12-20T08:18:10;24.90;;;11.00;;
76818;SDS011;65772;51.096;17.006;2022-12-20T08:20:42;29.90;;;11.90;;
76818;SDS011;65772;51.096;17.006;2022-12-20T08:23:13;28.50;;;12.00;;
76818;SDS011;65772;51.096;17.006;2022-12-20T08:25:43;34.90;;;14.20;;
76818;SDS011;65772;51.096;17.006;2022-12-20T08:28:14;30.10;;;13.30;;
76818;SDS011;65772;51.096;17.006;2022-12-20T08:30:44;27.80;;;12.00;;
76818;SDS011;65772;51.096;17.006;2022-12-20T08:33:15;30.30;;;12.20;;
76818;SDS011;65772;51.096;17.006;2022-12-20T08:35:46;35.40;;;14.60;;
76818;SDS011;65772;51.096;17.006;2022-12-20T08:38:25;30.20;;;12.70;;
76818;SDS011;65772;51.096;17.006;2022-12-20T08:41:01;27.50;;;12.20;;
76818;SDS011;65772;51.096;17.006;2022-12-20T08:43:33;31.60;;;12.80;;
76818;SDS011;65772;51.096;17.006;2022-12-20T08:46:05;33.70;;;14.40;;
76818;SDS011;65772;51.096;17.006;2022-12-20T08:48:37;30.00;;;12.30;;
76818;SDS011;65772;51.096;17.006;2022-12-20T08:51:08;28.00;;;12.70;;
76818;SDS011;65772;51.096;17.006;2022-12-20T08:53:40;28.80;;;12.50;;
76818;SDS011;65772;51.096;17.006;2022-12-20T08:56:11;31.40;;;12.70;;
76818;SDS011;65772;51.096;17.006;2022-12-20T08:58:43;32.40;;;14.40;;
76818;SDS011;65772;51.096;17.006;2022-12-20T09:01:15;30.70;;;12.20;;
76818;SDS011;65772;51.096;17.006;2022-12-20T09:03:48;30.40;;;12.60;;
76818;SDS011;65772;51.096;17.006;2022-12-20T09:06:19;30.90;;;12.40;;
76818;SDS011;65772;51.096;17.006;2022-12-20T09:08:50;29.00;;;12.40;;
76818;SDS011;65772;51.096;17.006;2022-12-20T09:11:23;35.00;;;13.50;;
76818;SDS011;65772;51.096;17.006;2022-12-20T09:13:54;42.90;;;18.80;;
76818;SDS011;65772;51.096;17.006;2022-12-20T09:16:26;32.10;;;12.90;;
76818;SDS011;65772;51.096;17.006;2022-12-20T09:18:59;28.00;;;11.70;;
76818;SDS011;65772;51.096;17.006;2022-12-20T09:21:33;25.50;;;11.30;;
76818;SDS011;65772;51.096;17.006;2022-12-20T09:24:05;29.70;;;12.40;;
76818;SDS011;65772;51.096;17.006;2022-12-20T09:26:36;32.50;;;13.30;;
76818;SDS011;65772;51.096;17.006;2022-12-20T09:29:08;33.90;;;14.80;;
76818;SDS011;65772;51.096;17.006;2022-12-20T09:31:38;32.60;;;13.20;;
76818;SDS011;65772;51.096;17.006;2022-12-20T09:34:10;32.00;;;13.90;;
76818;SDS011;65772;51.096;17.006;2022-12-20T09:36:40;32.50;;;13.80;;
76818;SDS011;65772;51.096;17.006;2022-12-20T09:39:11;31.90;;;14.70;;
76818;SDS011;65772;51.096;17.006;2022-12-20T09:41:42;31.20;;;13.60;;
76818;SDS011;65772;51.096;17.006;2022-12-20T09:44:15;31.50;;;13.20;;
76818;SDS011;65772;51.096;17.006;2022-12-20T09:46:52;37.70;;;15.80;;
76818;SDS011;65772;51.096;17.006;2022-12-20T09:52:21;31.70;;;11.90;;
76818;SDS011;65772;51.096;17.006;2022-12-20T09:55:03;34.30;;;14.30;;
76818;SDS011;65772;51.096;17.006;2022-12-20T09:57:49;35.20;;;13.40;;
76818;SDS011;65772;51.096;17.006;2022-12-20T10:00:27;35.30;;;13.20;;
76818;SDS011;65772;51.096;17.006;2022-12-20T10:03:03;32.80;;;14.40;;
76818;SDS011;65772;51.096;17.006;2022-12-20T10:05:38;32.40;;;14.00;;
76818;SDS011;65772;51.096;17.006;2022-12-20T10:08:22;36.10;;;14.90;;
76818;SDS011;65772;51.096;17.006;2022-12-20T10:11:03;32.00;;;13.10;;
76818;SDS011;65772;51.096;17.006;2022-12-20T10:13:46;30.20;;;13.40;;
76818;SDS011;65772;51.096;17.006;2022-12-20T10:16:35;30.70;;;13.00;;
76818;SDS011;65772;51.096;17.006;2022-12-20T10:22:04;37.10;;;15.00;;
76818;SDS011;65772;51.096;17.006;2022-12-20T10:24:40;34.60;;;15.10;;
76818;SDS011;65772;51.096;17.006;2022-12-20T10:27:19;37.70;;;15.30;;
76818;SDS011;65772;51.096;17.006;2022-12-20T10:29:50;36.90;;;16.00;;
76818;SDS011;65772;51.096;17.006;2022-12-20T10:32:21;39.30;;;16.20;;
76818;SDS011;65772;51.096;17.006;2022-12-20T10:34:56;36.10;;;14.60;;
76818;SDS011;65772;51.096;17.006;2022-12-20T10:37:39;39.20;;;15.40;;
76818;SDS011;65772;51.096;17.006;2022-12-20T10:40:36;39.10;;;16.20;;
76818;SDS011;65772;51.096;17.006;2022-12-20T10:43:33;33.80;;;13.90;;
76818;SDS011;65772;51.096;17.006;2022-12-20T10:46:08;37.20;;;15.20;;
76818;SDS011;65772;51.096;17.006;2022-12-20T10:48:41;30.30;;;13.60;;
76818;SDS011;65772;51.096;17.006;2022-12-20T10:51:14;35.90;;;15.50;;
76818;SDS011;65772;51.096;17.006;2022-12-20T10:53:53;33.60;;;14.80;;
76818;SDS011;65772;51.096;17.006;2022-12-20T10:56:28;32.10;;;14.10;;
76818;SDS011;65772;51.096;17.006;2022-12-20T10:59:01;34.80;;;14.10;;
76818;SDS011;65772;51.096;17.006;2022-12-20T11:01:49;35.20;;;15.50;;
76818;SDS011;65772;51.096;17.006;2022-12-20T11:04:24;42.10;;;18.00;;
76818;SDS011;65772;51.096;17.006;2022-12-20T11:06:57;36.60;;;16.20;;
76818;SDS011;65772;51.096;17.006;2022-12-20T11:09:31;32.50;;;15.30;;
76818;SDS011;65772;51.096;17.006;2022-12-20T11:12:05;34.30;;;15.30;;
76818;SDS011;65772;51.096;17.006;2022-12-20T11:14:41;43.00;;;18.30;;
76818;SDS011;65772;51.096;17.006;2022-12-20T11:17:22;52.60;;;23.40;;
76818;SDS011;65772;51.096;17.006;2022-12-20T11:20:13;45.10;;;19.40;;
76818;SDS011;65772;51.096;17.006;2022-12-20T11:22:57;35.90;;;16.40;;
76818;SDS011;65772;51.096;17.006;2022-12-20T11:25:42;38.50;;;17.10;;
76818;SDS011;65772;51.096;17.006;2022-12-20T11:28:24;39.20;;;16.20;;
76818;SDS011;65772;51.096;17.006;2022-12-20T11:31:10;41.10;;;17.00;;
76818;SDS011;65772;51.096;17.006;2022-12-20T11:33:51;36.00;;;15.20;;
76818;SDS011;65772;51.096;17.006;2022-12-20T11:36:35;39.40;;;16.40;;
76818;SDS011;65772;51.096;17.006;2022-12-20T11:39:26;35.80;;;15.80;;
76818;SDS011;65772;51.096;17.006;2022-12-20T11:42:03;40.80;;;17.80;;
76818;SDS011;65772;51.096;17.006;2022-12-20T11:47:37;32.50;;;14.40;;
76818;SDS011;65772;51.096;17.006;2022-12-20T11:50:37;32.80;;;15.10;;
76818;SDS011;65772;51.096;17.006;2022-12-20T11:53:17;34.50;;;16.20;;
76818;SDS011;65772;51.096;17.006;2022-12-20T11:55:53;35.40;;;14.80;;
76818;SDS011;65772;51.096;17.006;2022-12-20T11:58:30;34.50;;;14.70;;
76818;SDS011;65772;51.096;17.006;2022-12-20T12:01:11;31.80;;;14.90;;
76818;SDS011;65772;51.096;17.006;2022-12-20T12:03:47;33.10;;;16.10;;
76818;SDS011;65772;51.096;17.006;2022-12-20T12:06:27;35.30;;;16.00;;
76818;SDS011;65772;51.096;17.006;2022-12-20T12:09:05;34.60;;;15.20;;
76818;SDS011;65772;51.096;17.006;2022-12-20T12:11:43;33.90;;;14.00;;
76818;SDS011;65772;51.096;17.006;2022-12-20T12:14:43;36.50;;;16.80;;
76818;SDS011;65772;51.096;17.006;2022-12-20T12:17:20;34.10;;;16.40;;
76818;SDS011;65772;51.096;17.006;2022-12-20T12:19:59;39.30;;;16.10;;
76818;SDS011;65772;51.096;17.006;2022-12-20T12:22:42;34.50;;;15.60;;
76818;SDS011;65772;51.096;17.006;2022-12-20T12:25:16;34.80;;;15.50;;
76818;SDS011;65772;51.096;17.006;2022-12-20T12:27:47;33.60;;;14.80;;
76818;SDS011;65772;51.096;17.006;2022-12-20T12:30:18;38.60;;;16.40;;
76818;SDS011;65772;51.096;17.006;2022-12-20T12:32:50;33.70;;;15.70;;
76818;SDS011;65772;51.096;17.006;2022-12-20T12:35:37;36.80;;;16.30;;
76818;SDS011;65772;51.096;17.006;2022-12-20T12:44:37;35.80;;;15.10;;
76818;SDS011;65772;51.096;17.006;2022-12-20T12:47:15;33.70;;;15.50;;
76818;SDS011;65772;51.096;17.006;2022-12-20T12:49:51;34.50;;;15.80;;
76818;SDS011;65772;51.096;17.006;2022-12-20T12:58:14;33.30;;;15.20;;
76818;SDS011;65772;51.096;17.006;2022-12-20T13:00:59;34.80;;;16.10;;
76818;SDS011;65772;51.096;17.006;2022-12-20T13:03:36;39.30;;;17.20;;
76818;SDS011;65772;51.096;17.006;2022-12-20T13:09:35;34.80;;;15.80;;
76818;SDS011;65772;51.096;17.006;2022-12-20T13:18:33;31.00;;;14.90;;
76818;SDS011;65772;51.096;17.006;2022-12-20T13:21:24;36.40;;;17.10;;
76818;SDS011;65772;51.096;17.006;2022-12-20T13:27:17;33.50;;;14.20;;
76818;SDS011;65772;51.096;17.006;2022-12-20T13:30:22;31.30;;;14.40;;
76818;SDS011;65772;51.096;17.006;2022-12-20T13:39:02;36.50;;;15.30;;
76818;SDS011;65772;51.096;17.006;2022-12-20T13:42:06;38.90;;;16.00;;
76818;SDS011;65772;51.096;17.006;2022-12-20T13:44:45;38.20;;;14.80;;
76818;SDS011;65772;51.096;17.006;2022-12-20T13:53:13;39.00;;;15.80;;
76818;SDS011;65772;51.096;17.006;2022-12-20T13:55:46;36.40;;;15.30;;
76818;SDS011;65772;51.096;17.006;2022-12-20T13:58:18;35.40;;;15.60;;
76818;SDS011;65772;51.096;17.006;2022-12-20T14:00:53;31.30;;;15.00;;
76818;SDS011;65772;51.096;17.006;2022-12-20T14:03:34;33.70;;;15.10;;
76818;SDS011;65772;51.096;17.006;2022-12-20T14:06:13;35.30;;;16.30;;
76818;SDS011;65772;51.096;17.006;2022-12-20T14:08:53;33.80;;;15.00;;
76818;SDS011;65772;51.096;17.006;2022-12-20T14:11:24;38.40;;;16.00;;
76818;SDS011;65772;51.096;17.006;2022-12-20T14:13:55;39.00;;;16.80;;
76818;SDS011;65772;51.096;17.006;2022-12-20T14:16:28;35.30;;;17.20;;
76818;SDS011;65772;51.096;17.006;2022-12-20T14:19:03;35.40;;;15.40;;
76818;SDS011;65772;51.096;17.006;2022-12-20T14:21:35;36.00;;;16.40;;
76818;SDS011;65772;51.096;17.006;2022-12-20T14:24:08;39.90;;;15.70;;
76818;SDS011;65772;51.096;17.006;2022-12-20T14:26:43;49.80;;;21.90;;
76818;SDS011;65772;51.096;17.006;2022-12-20T14:29:17;44.20;;;19.50;;
76818;SDS011;65772;51.096;17.006;2022-12-20T14:31:51;39.90;;;17.50;;
76818;SDS011;65772;51.096;17.006;2022-12-20T14:34:24;34.60;;;17.00;;
76818;SDS011;65772;51.096;17.006;2022-12-20T14:37:25;36.30;;;14.90;;
76818;SDS011;65772;51.096;17.006;2022-12-20T14:39:59;34.70;;;16.10;;
76818;SDS011;65772;51.096;17.006;2022-12-20T14:42:42;37.60;;;15.80;;
76818;SDS011;65772;51.096;17.006;2022-12-20T14:45:17;37.20;;;16.60;;
76818;SDS011;65772;51.096;17.006;2022-12-20T14:47:52;35.90;;;15.80;;
76818;SDS011;65772;51.096;17.006;2022-12-20T14:50:30;38.40;;;16.30;;
76818;SDS011;65772;51.096;17.006;2022-12-20T14:53:02;38.60;;;16.80;;
76818;SDS011;65772;51.096;17.006;2022-12-20T14:55:44;40.10;;;15.50;;
76818;SDS011;65772;51.096;17.006;2022-12-20T14:58:26;38.00;;;15.80;;
76818;SDS011;65772;51.096;17.006;2022-12-20T15:00:58;33.80;;;14.70;;
76818;SDS011;65772;51.096;17.006;2022-12-20T15:03:31;34.40;;;15.10;;
76818;SDS011;65772;51.096;17.006;2022-12-20T15:06:02;32.10;;;14.90;;
76818;SDS011;65772;51.096;17.006;2022-12-20T15:08:33;39.30;;;16.50;;
76818;SDS011;65772;51.096;17.006;2022-12-20T15:11:12;35.00;;;15.90;;
76818;SDS011;65772;51.096;17.006;2022-12-20T15:13:51;34.60;;;14.70;;
76818;SDS011;65772;51.096;17.006;2022-12-20T15:16:23;34.70;;;14.40;;
76818;SDS011;65772;51.096;17.006;2022-12-20T15:18:56;32.20;;;14.50;;
76818;SDS011;65772;51.096;17.006;2022-12-20T15:21:29;31.10;;;14.10;;
76818;SDS011;65772;51.096;17.006;2022-12-20T15:24:03;33.60;;;14.90;;
76818;SDS011;65772;51.096;17.006;2022-12-20T15:26:37;33.90;;;15.20;;
76818;SDS011;65772;51.096;17.006;2022-12-20T15:29:11;33.20;;;15.20;;
76818;SDS011;65772;51.096;17.006;2022-12-20T15:31:45;30.20;;;14.50;;
76818;SDS011;65772;51.096;17.006;2022-12-20T15:34:18;33.70;;;16.00;;
76818;SDS011;65772;51.096;17.006;2022-12-20T15:36:57;32.20;;;15.20;;
76818;SDS011;65772;51.096;17.006;2022-12-20T15:39:29;32.10;;;14.70;;
76818;SDS011;65772;51.096;17.006;2022-12-20T15:42:01;38.00;;;15.00;;
76818;SDS011;65772;51.096;17.006;2022-12-20T15:47:03;28.70;;;12.80;;
76818;SDS011;65772;51.096;17.006;2022-12-20T15:49:34;35.00;;;14.80;;
76818;SDS011;65772;51.096;17.006;2022-12-20T15:52:04;37.40;;;16.20;;
76818;SDS011;65772;51.096;17.006;2022-12-20T15:54:38;38.30;;;16.10;;
76818;SDS011;65772;51.096;17.006;2022-12-20T15:57:10;33.40;;;14.70;;
76818;SDS011;65772;51.096;17.006;2022-12-20T15:59:43;32.60;;;15.30;;